createdAt,value
2019-02-12T00:00:44.501Z,3.33
2019-02-12T00:01:44.422Z,3.32
2019-02-12T00:02:44.416Z,3.35
2019-02-12T00:03:44.455Z,3.35
2019-02-12T00:04:44.385Z,3.39
2019-02-12T00:05:44.398Z,3.26
2019-02-12T00:06:44.365Z,3.42
2019-02-12T00:07:44.363Z,3.40
2019-02-12T00:08:44.345Z,3.42
2019-02-12T00:09:44.333Z,3.33
2019-02-12T00:10:44.361Z,3.45
2019-02-12T00:11:44.311Z,3.39
2019-02-12T00:12:44.307Z,3.42
2019-02-12T00:13:44.291Z,3.42
2019-02-12T00:14:44.281Z,3.36
2019-02-12T00:15:44.280Z,3.40
2019-02-12T00:16:44.289Z,3.39
2019-02-12T00:17:44.262Z,3.45
2019-02-12T00:18:44.239Z,3.42
2019-02-12T00:19:44.239Z,3.35
2019-02-12T00:20:44.229Z,3.29
2019-02-12T00:21:44.230Z,3.31
2019-02-12T00:22:44.196Z,3.32
2019-02-12T00:23:44.183Z,3.32
2019-02-12T00:24:44.175Z,3.32
2019-02-12T00:25:44.167Z,3.29
2019-02-12T00:26:44.186Z,3.36
2019-02-12T00:27:44.154Z,3.31
2019-02-12T00:28:44.131Z,3.31
2019-02-12T00:29:44.139Z,3.33
2019-02-12T00:30:44.113Z,3.29
2019-02-12T00:31:44.093Z,3.33
2019-02-12T00:32:44.104Z,3.35
2019-02-12T00:33:44.095Z,3.39
2019-02-12T00:34:44.075Z,3.35
2019-02-12T00:35:44.061Z,3.33
2019-02-12T00:36:44.047Z,3.36
2019-02-12T00:37:44.127Z,3.29
2019-02-12T00:38:44.026Z,3.35
2019-02-12T00:39:44.033Z,3.35
2019-02-12T00:40:44.006Z,3.29
2019-02-12T00:41:43.993Z,3.35
2019-02-12T00:42:43.988Z,3.32
2019-02-12T00:43:44.000Z,3.32
2019-02-12T00:44:43.963Z,3.32
2019-02-12T00:45:43.975Z,3.29
2019-02-12T00:46:43.941Z,3.36
2019-02-12T00:47:43.928Z,3.32
2019-02-12T00:48:43.939Z,3.28
2019-02-12T00:49:43.907Z,3.29
2019-02-12T00:50:43.895Z,3.17
2019-02-12T00:51:43.896Z,3.20
2019-02-12T00:52:43.878Z,3.23
2019-02-12T00:53:43.888Z,3.20
2019-02-12T00:54:43.884Z,3.17
2019-02-12T00:55:43.842Z,3.15
2019-02-12T00:56:43.844Z,3.13
2019-02-12T00:57:43.820Z,3.18
2019-02-12T00:58:43.832Z,3.13
2019-02-12T00:59:43.803Z,3.17
2019-02-12T01:00:43.791Z,3.05
2019-02-12T01:01:43.777Z,3.15
2019-02-12T01:02:43.780Z,3.15
2019-02-12T01:03:43.800Z,3.17
2019-02-12T01:04:43.767Z,3.06
2019-02-12T01:05:43.749Z,3.14
2019-02-12T01:06:43.730Z,3.06
2019-02-12T01:07:43.720Z,3.03
2019-02-12T01:08:43.702Z,3.02
2019-02-12T01:09:43.737Z,3.03
2019-02-12T01:10:43.686Z,2.96
2019-02-12T01:11:43.684Z,3.02
2019-02-12T01:12:43.659Z,3.02
2019-02-12T01:13:43.651Z,3.02
2019-02-12T01:14:43.666Z,2.87
2019-02-12T01:15:43.668Z,2.89
2019-02-12T01:16:43.630Z,2.96
2019-02-12T01:17:43.619Z,2.95
2019-02-12T01:18:43.598Z,2.90
2019-02-12T01:19:43.586Z,2.89
2019-02-12T01:20:43.590Z,3.02
2019-02-12T01:21:43.567Z,2.93
2019-02-12T01:22:43.553Z,2.90
2019-02-12T01:23:43.545Z,2.95
2019-02-12T01:24:43.553Z,2.92
2019-02-12T01:25:43.547Z,2.84
2019-02-12T01:26:43.528Z,2.84
2019-02-12T01:27:43.502Z,2.90
2019-02-12T01:28:43.510Z,2.93
2019-02-12T01:29:43.475Z,2.90
2019-02-12T01:30:43.485Z,2.92
2019-02-12T01:31:43.464Z,2.87
2019-02-12T01:32:43.505Z,2.89
2019-02-12T01:33:43.441Z,2.89
2019-02-12T01:34:43.436Z,2.92
2019-02-12T01:35:43.448Z,2.95
2019-02-12T01:36:43.403Z,3.03
2019-02-12T01:37:43.390Z,2.99
2019-02-12T01:38:43.381Z,3.00
2019-02-12T01:39:43.369Z,3.00
2019-02-12T01:40:43.387Z,3.05
2019-02-12T01:41:43.348Z,3.08
2019-02-12T01:42:43.353Z,3.14
2019-02-12T01:43:43.331Z,3.11
2019-02-12T01:44:43.321Z,3.18
2019-02-12T01:45:43.328Z,3.06
2019-02-12T01:46:43.298Z,3.08
2019-02-12T01:47:43.287Z,3.13
2019-02-12T01:48:43.277Z,3.13
2019-02-12T01:49:43.290Z,3.10
2019-02-12T01:50:43.285Z,3.05
2019-02-12T01:51:43.256Z,3.06
2019-02-12T01:52:43.244Z,3.11
2019-02-12T01:53:43.224Z,3.14
2019-02-12T01:54:43.216Z,3.17
2019-02-12T01:55:43.296Z,3.20
2019-02-12T01:56:43.196Z,3.29
2019-02-12T01:57:43.186Z,3.21
2019-02-12T01:58:43.168Z,3.21
2019-02-12T01:59:43.158Z,3.24
2019-02-12T02:00:43.232Z,3.23
2019-02-12T02:01:43.169Z,3.17
2019-02-12T02:02:43.128Z,3.31
2019-02-12T02:03:43.118Z,3.21
2019-02-12T02:04:43.106Z,3.33
2019-02-12T02:05:43.096Z,3.32
2019-02-12T02:06:43.116Z,3.33
2019-02-12T02:07:43.185Z,3.31
2019-02-12T02:08:43.066Z,3.31
2019-02-12T02:09:43.048Z,3.31
2019-02-12T02:10:43.040Z,3.39
2019-02-12T02:11:43.075Z,3.28
2019-02-12T02:12:43.032Z,3.32
2019-02-12T02:13:43.010Z,3.36
2019-02-12T02:14:43.000Z,3.23
2019-02-12T02:15:42.986Z,3.31
2019-02-12T02:16:43.001Z,3.35
2019-02-12T02:17:42.975Z,3.40
2019-02-12T02:18:42.950Z,3.40
2019-02-12T02:19:42.953Z,3.40
2019-02-12T02:20:42.931Z,3.23
2019-02-12T02:21:44.320Z,3.26
2019-02-12T02:22:42.910Z,3.31
2019-02-12T02:23:42.902Z,3.35
2019-02-12T02:24:42.890Z,3.33
2019-02-12T02:25:42.915Z,3.43
2019-02-12T02:26:42.886Z,3.42
2019-02-12T02:27:42.913Z,3.42
2019-02-12T02:28:42.856Z,3.33
2019-02-12T02:29:42.838Z,3.29
2019-02-12T02:30:42.824Z,3.31
2019-02-12T02:31:42.849Z,3.29
2019-02-12T02:32:42.808Z,3.42
2019-02-12T02:33:42.833Z,3.33
2019-02-12T02:34:42.789Z,3.26
2019-02-12T02:35:42.779Z,3.42
2019-02-12T02:36:42.768Z,3.40
2019-02-12T02:37:42.780Z,3.28
2019-02-12T02:38:42.743Z,3.32
2019-02-12T02:39:42.739Z,3.32
2019-02-12T02:40:42.726Z,3.32
2019-02-12T02:41:42.707Z,3.33
2019-02-12T02:42:42.716Z,3.32
2019-02-12T02:43:42.702Z,3.23
2019-02-12T02:44:42.693Z,3.20
2019-02-12T02:45:42.671Z,3.23
2019-02-12T02:46:42.664Z,3.17
2019-02-12T02:47:42.745Z,3.20
2019-02-12T02:48:42.655Z,3.15
2019-02-12T02:49:42.683Z,3.20
2019-02-12T02:50:42.612Z,3.15
2019-02-12T02:51:42.623Z,3.17
2019-02-12T02:52:42.636Z,3.15
2019-02-12T02:53:42.582Z,3.18
2019-02-12T02:54:42.576Z,3.21
2019-02-12T02:55:42.560Z,3.23
2019-02-12T02:56:42.548Z,3.24
2019-02-12T02:57:42.558Z,3.20
2019-02-12T02:58:42.564Z,3.23
2019-02-12T02:59:42.533Z,3.28
2019-02-12T03:00:42.521Z,3.21
2019-02-12T03:01:42.498Z,3.23
2019-02-12T03:02:42.540Z,3.21
2019-02-12T03:03:42.479Z,3.20
2019-02-12T03:04:42.476Z,3.23
2019-02-12T03:05:42.460Z,3.21
2019-02-12T03:06:42.453Z,3.24
2019-02-12T03:07:42.460Z,3.18
2019-02-12T03:08:42.439Z,3.21
2019-02-12T03:09:42.412Z,3.15
2019-02-12T03:10:42.421Z,3.08
2019-02-12T03:11:42.395Z,3.17
2019-02-12T03:12:42.404Z,3.20
2019-02-12T03:13:42.388Z,3.14
2019-02-12T03:14:42.357Z,3.11
2019-02-12T03:15:42.351Z,3.06
2019-02-12T03:16:42.389Z,3.02
2019-02-12T03:17:42.355Z,3.02
2019-02-12T03:18:42.320Z,3.02
2019-02-12T03:19:42.312Z,2.95
2019-02-12T03:20:42.296Z,2.92
2019-02-12T03:21:42.303Z,2.93
2019-02-12T03:22:42.310Z,2.97
2019-02-12T03:23:42.286Z,2.95
2019-02-12T03:24:42.261Z,2.92
2019-02-12T03:25:42.243Z,2.92
2019-02-12T03:26:42.232Z,2.89
2019-02-12T03:27:42.230Z,2.92
2019-02-12T03:28:42.238Z,2.95
2019-02-12T03:29:42.214Z,2.89
2019-02-12T03:30:42.193Z,2.84
2019-02-12T03:31:42.183Z,2.85
2019-02-12T03:32:42.329Z,2.84
2019-02-12T03:33:42.201Z,2.84
2019-02-12T03:34:42.159Z,2.84
2019-02-12T03:35:42.149Z,2.82
2019-02-12T03:36:42.130Z,2.82
2019-02-12T03:37:42.153Z,2.85
2019-02-12T03:38:42.127Z,2.84
2019-02-12T03:39:42.113Z,2.78
2019-02-12T03:40:42.145Z,2.77
2019-02-12T03:41:42.099Z,2.77
2019-02-12T03:42:42.069Z,2.82
2019-02-12T03:43:42.074Z,2.74
2019-02-12T03:44:42.074Z,2.77
2019-02-12T03:45:42.038Z,2.77
2019-02-12T03:46:42.030Z,2.72
2019-02-12T03:47:42.012Z,2.72
2019-02-12T03:48:41.999Z,2.77
2019-02-12T03:49:42.008Z,2.72
2019-02-12T03:50:41.988Z,2.75
2019-02-12T03:51:41.966Z,2.79
2019-02-12T03:52:41.988Z,2.74
2019-02-12T03:53:41.970Z,2.79
2019-02-12T03:54:41.978Z,2.84
2019-02-12T03:55:41.925Z,2.78
2019-02-12T03:56:41.923Z,2.81
2019-02-12T03:57:41.903Z,2.77
2019-02-12T03:58:41.906Z,2.82
2019-02-12T03:59:41.977Z,2.79
2019-02-12T04:00:41.912Z,2.85
2019-02-12T04:01:41.862Z,2.87
2019-02-12T04:02:41.848Z,2.87
2019-02-12T04:03:41.846Z,2.93
2019-02-12T04:04:41.860Z,2.85
2019-02-12T04:05:41.818Z,2.95
2019-02-12T04:06:41.808Z,2.92
2019-02-12T04:07:41.794Z,2.87
2019-02-12T04:08:41.785Z,2.93
2019-02-12T04:09:41.791Z,2.95
2019-02-12T04:10:41.765Z,3.00
2019-02-12T04:11:41.753Z,3.08
2019-02-12T04:12:41.740Z,3.06
2019-02-12T04:13:41.749Z,3.02
2019-02-12T04:14:41.752Z,3.00
2019-02-12T04:15:41.716Z,3.03
2019-02-12T04:16:41.703Z,2.95
2019-02-12T04:17:41.688Z,3.02
2019-02-12T04:18:41.689Z,3.06
2019-02-12T04:19:41.707Z,3.06
2019-02-12T04:20:41.664Z,3.13
2019-02-12T04:21:41.656Z,3.15
2019-02-12T04:22:41.644Z,3.11
2019-02-12T04:23:41.626Z,3.15
2019-02-12T04:24:41.638Z,3.14
2019-02-12T04:25:41.610Z,3.14
2019-02-12T04:26:41.602Z,3.05
2019-02-12T04:27:41.586Z,3.13
2019-02-12T04:28:41.582Z,3.17
2019-02-12T04:29:41.590Z,3.11
2019-02-12T04:30:41.550Z,3.08
2019-02-12T04:31:41.552Z,3.08
2019-02-12T04:32:41.533Z,3.10
2019-02-12T04:33:41.515Z,3.06
2019-02-12T04:34:41.531Z,3.14
2019-02-12T04:35:41.499Z,3.15
2019-02-12T04:36:41.511Z,3.18
2019-02-12T04:37:41.496Z,3.02
2019-02-12T04:38:41.474Z,3.14
2019-02-12T04:39:41.480Z,3.06
2019-02-12T04:40:41.487Z,3.17
2019-02-12T04:41:41.443Z,3.14
2019-02-12T04:42:41.437Z,3.17
2019-02-12T04:43:41.424Z,3.15
2019-02-12T04:44:41.424Z,3.13
2019-02-12T04:45:41.395Z,3.10
2019-02-12T04:46:41.387Z,3.14
2019-02-12T04:47:41.366Z,3.15
2019-02-12T04:48:41.361Z,3.29
2019-02-12T04:49:41.389Z,3.18
2019-02-12T04:50:41.365Z,3.14
2019-02-12T04:51:41.339Z,3.20
2019-02-12T04:52:41.318Z,3.23
2019-02-12T04:53:41.315Z,3.13
2019-02-12T04:54:41.290Z,3.20
2019-02-12T04:55:41.314Z,3.20
2019-02-12T04:56:41.283Z,3.15
2019-02-12T04:57:41.269Z,3.13
2019-02-12T04:58:41.254Z,3.17
2019-02-12T04:59:41.256Z,3.23
2019-02-12T05:00:41.266Z,3.20
2019-02-12T05:01:41.235Z,3.20
2019-02-12T05:02:41.215Z,3.15
2019-02-12T05:03:41.207Z,3.18
2019-02-12T05:04:41.188Z,3.17
2019-02-12T05:05:41.204Z,3.21
2019-02-12T05:06:41.172Z,3.11
2019-02-12T05:07:41.186Z,3.15
2019-02-12T05:08:41.149Z,3.15
2019-02-12T05:09:41.137Z,3.15
2019-02-12T05:10:41.193Z,3.13
2019-02-12T05:11:41.115Z,3.17
2019-02-12T05:12:41.110Z,3.08
2019-02-12T05:13:41.094Z,3.11
2019-02-12T05:14:41.084Z,3.13
2019-02-12T05:15:41.094Z,3.14
2019-02-12T05:16:41.060Z,3.13
2019-02-12T05:17:41.051Z,3.06
2019-02-12T05:18:41.040Z,3.06
2019-02-12T05:19:41.051Z,3.15
2019-02-12T05:20:41.043Z,3.10
2019-02-12T05:21:41.048Z,3.10
2019-02-12T05:22:43.547Z,3.18
2019-02-12T05:23:40.988Z,3.06
2019-02-12T05:24:40.993Z,3.10
2019-02-12T05:25:40.967Z,3.21
2019-02-12T05:26:40.979Z,3.15
2019-02-12T05:27:40.950Z,3.14
2019-02-12T05:28:40.978Z,3.17
2019-02-12T05:29:40.935Z,3.17
2019-02-12T05:30:40.920Z,3.10
2019-02-12T05:31:40.936Z,3.13
2019-02-12T05:32:40.891Z,3.13
2019-02-12T05:33:40.897Z,3.13
2019-02-12T05:34:40.872Z,3.18
2019-02-12T05:35:40.868Z,3.21
2019-02-12T05:36:40.886Z,3.15
2019-02-12T05:37:40.842Z,3.13
2019-02-12T05:38:40.827Z,3.15
2019-02-12T05:39:40.814Z,3.14
2019-02-12T05:40:40.805Z,3.13
2019-02-12T05:41:40.810Z,3.13
2019-02-12T05:42:40.804Z,3.11
2019-02-12T05:43:40.780Z,3.14
2019-02-12T05:44:40.766Z,3.13
2019-02-12T05:45:40.757Z,3.03
2019-02-12T05:46:40.763Z,3.00
2019-02-12T05:47:40.743Z,3.02
2019-02-12T05:48:40.724Z,3.08
2019-02-12T05:49:40.709Z,2.93
2019-02-12T05:50:40.703Z,2.92
2019-02-12T05:51:40.727Z,2.93
2019-02-12T05:52:40.700Z,2.92
2019-02-12T05:53:40.681Z,2.89
2019-02-12T05:54:40.668Z,2.85
2019-02-12T05:55:40.650Z,2.92
2019-02-12T05:56:40.663Z,2.89
2019-02-12T05:57:40.630Z,2.97
2019-02-12T05:58:40.618Z,2.95
2019-02-12T05:59:40.623Z,2.84
2019-02-12T06:00:40.594Z,2.89
2019-02-12T06:01:40.663Z,2.81
2019-02-12T06:02:40.574Z,2.84
2019-02-12T06:03:40.571Z,2.78
2019-02-12T06:04:40.555Z,2.74
2019-02-12T06:05:40.559Z,2.74
2019-02-12T06:06:40.531Z,2.74
2019-02-12T06:07:40.572Z,2.72
2019-02-12T06:08:40.511Z,2.72
2019-02-12T06:09:40.500Z,2.74
2019-02-12T06:10:40.504Z,2.67
2019-02-12T06:11:40.478Z,2.66
2019-02-12T06:12:40.508Z,2.63
2019-02-12T06:13:40.452Z,2.64
2019-02-12T06:14:40.458Z,2.69
2019-02-12T06:15:40.441Z,2.71
2019-02-12T06:16:40.427Z,2.71
2019-02-12T06:17:40.437Z,2.67
2019-02-12T06:18:40.401Z,2.64
2019-02-12T06:19:40.389Z,2.67
2019-02-12T06:20:40.407Z,2.54
2019-02-12T06:21:40.377Z,2.72
2019-02-12T06:22:40.383Z,2.71
2019-02-12T06:23:40.359Z,2.71
2019-02-12T06:24:40.338Z,2.66
2019-02-12T06:25:40.336Z,2.71
2019-02-12T06:26:40.319Z,2.69
2019-02-12T06:27:40.342Z,2.63
2019-02-12T06:28:40.294Z,2.67
2019-02-12T06:29:40.285Z,2.75
2019-02-12T06:30:40.277Z,2.72
2019-02-12T06:31:40.267Z,2.77
2019-02-12T06:32:40.276Z,2.72
2019-02-12T06:33:40.263Z,2.87
2019-02-12T06:34:40.252Z,2.89
2019-02-12T06:35:40.252Z,2.81
2019-02-12T06:36:40.213Z,2.87
2019-02-12T06:37:40.222Z,2.97
2019-02-12T06:38:40.195Z,2.92
2019-02-12T06:39:40.185Z,2.90
2019-02-12T06:40:40.169Z,2.92
2019-02-12T06:41:40.158Z,2.96
2019-02-12T06:42:40.177Z,2.92
2019-02-12T06:43:40.156Z,2.95
2019-02-12T06:44:40.129Z,2.99
2019-02-12T06:45:40.123Z,2.93
2019-02-12T06:46:40.111Z,2.92
2019-02-12T06:47:40.092Z,2.92
2019-02-12T06:48:40.289Z,2.93
2019-02-12T06:49:40.074Z,3.05
2019-02-12T06:50:40.065Z,3.08
2019-02-12T06:51:40.053Z,3.05
2019-02-12T06:52:40.085Z,3.05
2019-02-12T06:53:40.053Z,3.02
2019-02-12T06:54:40.029Z,3.17
2019-02-12T06:55:40.014Z,3.11
2019-02-12T06:56:40.000Z,3.13
2019-02-12T06:57:39.991Z,3.10
2019-02-12T06:58:40.003Z,3.15
2019-02-12T06:59:39.969Z,3.13
2019-02-12T07:00:39.961Z,3.13
2019-02-12T07:01:39.947Z,3.10
2019-02-12T07:02:41.830Z,3.13
2019-02-12T07:03:39.956Z,3.05
2019-02-12T07:04:39.937Z,3.15
2019-02-12T07:05:39.906Z,3.11
2019-02-12T07:06:39.913Z,3.10
2019-02-12T07:07:39.884Z,3.08
2019-02-12T07:08:39.889Z,3.10
2019-02-12T07:09:39.879Z,3.13
2019-02-12T07:10:39.864Z,3.10
2019-02-12T07:11:39.838Z,3.08
2019-02-12T07:12:39.844Z,3.05
2019-02-12T07:13:39.847Z,3.11
2019-02-12T07:14:39.807Z,3.06
2019-02-12T07:15:39.803Z,3.14
2019-02-12T07:17:40.771Z,3.23
2019-02-12T07:18:39.793Z,3.17
2019-02-12T07:19:39.759Z,3.23
2019-02-12T07:20:39.745Z,3.15
2019-02-12T07:21:39.751Z,3.13
2019-02-12T07:22:39.723Z,3.10
2019-02-12T07:23:39.713Z,3.15
2019-02-12T07:24:39.722Z,3.10
2019-02-12T07:25:39.698Z,3.13
2019-02-12T07:26:39.691Z,3.10
2019-02-12T07:27:39.671Z,3.15
2019-02-12T07:28:39.656Z,3.13
2019-02-12T07:29:39.668Z,3.11
2019-02-12T07:30:39.639Z,3.11
2019-02-12T07:31:39.637Z,3.06
2019-02-12T07:32:39.626Z,3.06
2019-02-12T07:33:39.604Z,3.17
2019-02-12T07:34:39.616Z,3.13
2019-02-12T07:35:39.584Z,3.14
2019-02-12T07:36:40.862Z,3.05
2019-02-12T07:37:39.572Z,3.14
2019-02-12T07:38:39.564Z,2.99
2019-02-12T07:39:39.572Z,3.02
2019-02-12T07:40:39.533Z,3.08
2019-02-12T07:41:39.625Z,2.99
2019-02-12T07:42:39.523Z,3.06
2019-02-12T07:43:39.525Z,2.97
2019-02-12T07:44:39.505Z,3.02
2019-02-12T07:45:39.494Z,3.00
2019-02-12T07:46:39.496Z,3.06
2019-02-12T07:47:39.451Z,2.97
2019-02-12T07:48:39.449Z,2.95
2019-02-12T07:49:39.471Z,3.06
2019-02-12T07:50:39.424Z,3.05
2019-02-12T07:51:39.412Z,3.03
2019-02-12T07:52:39.409Z,3.02
2019-02-12T07:53:39.392Z,2.95
2019-02-12T07:54:39.425Z,2.95
2019-02-12T07:55:39.371Z,2.90
2019-02-12T07:56:39.369Z,2.99
2019-02-12T07:57:39.349Z,2.92
2019-02-12T07:58:39.339Z,2.99
2019-02-12T07:59:39.346Z,3.03
2019-02-12T08:00:39.329Z,3.08
2019-02-12T08:01:39.310Z,3.11
2019-02-12T08:02:39.313Z,3.06
2019-02-12T08:03:39.286Z,3.10
2019-02-12T08:04:39.290Z,3.13
2019-02-12T08:05:39.322Z,3.14
2019-02-12T08:06:39.261Z,3.15
2019-02-12T08:07:39.252Z,3.14
2019-02-12T08:08:39.232Z,3.14
2019-02-12T08:09:39.261Z,3.10
2019-02-12T08:10:39.211Z,3.18
2019-02-12T08:11:39.215Z,3.08
2019-02-12T08:12:39.207Z,3.17
2019-02-12T08:13:39.188Z,3.14
2019-02-12T08:14:39.227Z,3.10
2019-02-12T08:15:39.196Z,3.06
2019-02-12T08:16:39.148Z,3.05
2019-02-12T08:17:39.150Z,3.14
2019-02-12T08:18:39.127Z,3.10
2019-02-12T08:19:39.146Z,3.03
2019-02-12T08:20:39.135Z,3.06
2019-02-12T08:21:39.109Z,3.14
2019-02-12T08:22:39.832Z,3.11
2019-02-12T08:23:41.333Z,3.10
2019-02-12T08:24:39.115Z,3.20
2019-02-12T08:25:39.069Z,3.23
2019-02-12T08:26:39.043Z,3.20
2019-02-12T08:27:39.028Z,3.28
2019-02-12T08:28:39.038Z,3.23
2019-02-12T08:29:39.047Z,3.31
2019-02-12T08:30:39.020Z,3.31
2019-02-12T08:31:39.000Z,3.24
2019-02-12T08:32:38.981Z,3.33
2019-02-12T08:33:38.978Z,3.36
2019-02-12T08:34:38.982Z,3.42
2019-02-12T08:35:38.977Z,3.45
2019-02-12T08:36:38.937Z,3.50
2019-02-12T08:37:38.936Z,3.50
2019-02-12T08:38:39.154Z,3.51
2019-02-12T08:40:39.985Z,3.43
2019-02-12T08:41:38.881Z,3.60
2019-02-12T08:42:38.871Z,3.66
2019-02-12T08:43:38.872Z,3.65
2019-02-12T08:44:38.871Z,3.66
2019-02-12T08:45:38.866Z,3.68
2019-02-12T08:46:38.848Z,3.78
2019-02-12T08:47:38.823Z,3.79
2019-02-12T08:48:38.806Z,3.75
2019-02-12T08:49:38.826Z,3.80
2019-02-12T08:50:38.800Z,3.86
2019-02-12T08:51:38.803Z,3.88
2019-02-12T08:52:38.778Z,3.93
2019-02-12T08:53:38.765Z,3.86
2019-02-12T08:54:38.755Z,3.87
2019-02-12T08:55:38.734Z,3.86
2019-02-12T08:56:38.852Z,3.97
2019-02-12T08:57:38.735Z,3.93
2019-02-12T08:58:38.727Z,4.05
2019-02-12T08:59:38.711Z,4.08
2019-02-12T09:00:38.690Z,4.11
2019-02-12T09:01:38.683Z,4.12
2019-02-12T09:02:38.658Z,4.18
2019-02-12T09:03:38.660Z,4.18
2019-02-12T09:04:38.634Z,4.14
2019-02-12T09:05:38.629Z,4.20
2019-02-12T09:06:38.715Z,4.23
2019-02-12T09:07:38.606Z,4.14
2019-02-12T09:08:38.593Z,4.18
2019-02-12T09:09:38.642Z,4.16
2019-02-12T09:10:38.573Z,4.11
2019-02-12T09:11:38.607Z,4.11
2019-02-12T09:12:38.553Z,4.12
2019-02-12T09:13:38.546Z,4.18
2019-02-12T09:14:38.539Z,4.12
2019-02-12T09:15:38.527Z,4.15
2019-02-12T09:16:38.544Z,3.97
2019-02-12T09:17:40.185Z,3.98
2019-02-12T09:18:38.484Z,4.00
2019-02-12T09:19:38.481Z,4.04
2019-02-12T09:20:38.467Z,3.96
2019-02-12T09:21:38.480Z,4.00
2019-02-12T09:22:38.441Z,3.98
2019-02-12T09:23:38.439Z,4.11
2019-02-12T09:24:38.437Z,4.16
2019-02-12T09:25:38.415Z,4.33
2019-02-12T09:26:38.831Z,4.32
2019-02-12T09:27:38.389Z,4.34
2019-02-12T09:28:38.381Z,4.36
2019-02-12T09:29:38.370Z,4.45
2019-02-12T09:30:38.356Z,4.37
2019-02-12T09:31:38.380Z,4.50
2019-02-12T09:32:38.344Z,4.45
2019-02-12T09:33:38.325Z,4.47
2019-02-12T09:34:38.359Z,4.52
2019-02-12T09:35:38.312Z,4.59
2019-02-12T09:36:38.323Z,4.58
2019-02-12T09:37:38.287Z,4.65
2019-02-12T09:38:38.304Z,4.70
2019-02-12T09:39:38.261Z,4.82
2019-02-12T09:40:38.250Z,4.84
2019-02-12T09:41:38.257Z,4.80
2019-02-12T09:42:38.267Z,4.75
2019-02-12T09:43:38.231Z,4.73
2019-02-12T09:44:38.213Z,4.84
2019-02-12T09:45:38.189Z,4.89
2019-02-12T09:46:38.230Z,4.96
2019-02-12T09:47:38.197Z,4.84
2019-02-12T09:48:38.171Z,4.80
2019-02-12T09:49:38.155Z,4.84
2019-02-12T09:51:39.399Z,4.72
2019-02-12T09:52:38.135Z,4.62
2019-02-12T09:53:38.117Z,4.60
2019-02-12T09:54:38.135Z,4.77
2019-02-12T09:55:38.101Z,4.84
2019-02-12T09:56:38.123Z,4.77
2019-02-12T09:57:38.069Z,4.72
2019-02-12T09:58:38.051Z,4.82
2019-02-12T09:59:38.041Z,4.94
2019-02-12T10:00:38.038Z,4.89
2019-02-12T10:01:38.033Z,4.84
2019-02-12T10:02:38.028Z,4.88
2019-02-12T10:03:38.013Z,5.02
2019-02-12T10:04:38.009Z,4.97
2019-02-12T10:05:37.979Z,5.07
2019-02-12T10:06:37.979Z,5.10
2019-02-12T10:07:38.124Z,5.09
2019-02-12T10:08:37.966Z,5.10
2019-02-12T10:09:37.949Z,5.12
2019-02-12T10:10:37.926Z,5.13
2019-02-12T10:11:37.926Z,5.17
2019-02-12T10:12:37.930Z,5.20
2019-02-12T10:13:37.900Z,5.21
2019-02-12T10:14:37.890Z,5.25
2019-02-12T10:15:37.879Z,5.20
2019-02-12T10:17:38.938Z,5.17
2019-02-12T10:18:37.924Z,5.24
2019-02-12T10:19:37.925Z,5.12
2019-02-12T10:20:37.929Z,5.06
2019-02-12T10:21:37.812Z,4.97
2019-02-12T10:22:37.842Z,4.97
2019-02-12T10:23:37.797Z,5.00
2019-02-12T10:24:37.805Z,4.94
2019-02-12T10:25:37.778Z,4.92
2019-02-12T10:26:37.756Z,4.96
2019-02-12T10:27:37.780Z,5.15
2019-02-12T10:28:37.744Z,5.30
2019-02-12T10:29:37.733Z,5.39
2019-02-12T10:30:37.714Z,5.36
2019-02-12T10:31:37.711Z,5.48
2019-02-12T10:32:37.697Z,5.54
2019-02-12T10:33:37.706Z,5.46
2019-02-12T10:34:37.675Z,5.57
2019-02-12T10:35:37.665Z,5.68
2019-02-12T10:36:37.643Z,5.53
2019-02-12T10:37:37.634Z,5.42
2019-02-12T10:38:37.666Z,5.43
2019-02-12T10:39:37.632Z,5.43
2019-02-12T10:40:37.617Z,5.33
2019-02-12T10:41:37.657Z,5.40
2019-02-12T10:42:37.576Z,5.53
2019-02-12T10:43:37.727Z,5.56
2019-02-12T10:44:37.565Z,5.63
2019-02-12T10:45:37.551Z,5.63
2019-02-12T10:46:37.555Z,5.65
2019-02-12T10:47:37.525Z,5.54
2019-02-12T10:48:37.529Z,5.57
2019-02-12T10:49:37.504Z,5.64
2019-02-12T10:50:37.507Z,5.81
2019-02-12T10:51:37.488Z,5.83
2019-02-12T10:52:37.481Z,5.99
2019-02-12T10:53:37.495Z,6.06
2019-02-12T10:54:37.464Z,6.04
2019-02-12T10:55:37.446Z,5.91
2019-02-12T10:56:37.443Z,5.90
2019-02-12T10:57:37.423Z,5.97
2019-02-12T10:58:37.442Z,5.74
2019-02-12T10:59:37.392Z,5.75
2019-02-12T11:00:37.390Z,5.78
2019-02-12T11:01:37.391Z,5.64
2019-02-12T11:02:37.366Z,5.79
2019-02-12T11:03:37.392Z,5.63
2019-02-12T11:04:37.364Z,5.68
2019-02-12T11:05:37.332Z,5.61
2019-02-12T11:06:37.325Z,5.56
2019-02-12T11:07:37.314Z,5.63
2019-02-12T11:08:37.324Z,5.74
2019-02-12T11:09:37.300Z,5.74
2019-02-12T11:10:37.290Z,5.93
2019-02-12T11:11:37.264Z,5.91
2019-02-12T11:12:37.252Z,5.97
2019-02-12T11:13:37.269Z,6.27
2019-02-12T11:14:37.236Z,6.17
2019-02-12T11:15:37.224Z,6.28
2019-02-12T11:16:37.218Z,6.08
2019-02-12T11:17:37.219Z,6.04
2019-02-12T11:18:37.210Z,5.96
2019-02-12T11:19:37.184Z,5.74
2019-02-12T11:20:37.183Z,5.68
2019-02-12T11:21:37.155Z,5.63
2019-02-12T11:22:37.144Z,5.49
2019-02-12T11:23:37.158Z,5.51
2019-02-12T11:24:37.125Z,5.36
2019-02-12T11:25:37.119Z,5.48
2019-02-12T11:26:37.116Z,5.40
2019-02-12T11:27:37.132Z,5.40
2019-02-12T11:28:37.102Z,5.57
2019-02-12T11:29:37.154Z,6.14
2019-02-12T11:30:37.065Z,6.84
2019-02-12T11:31:37.092Z,7.68
2019-02-12T11:32:37.038Z,7.71
2019-02-12T11:33:37.100Z,8.55
2019-02-12T11:34:37.040Z,7.82
2019-02-12T11:35:37.058Z,6.97
2019-02-12T11:36:36.995Z,6.67
2019-02-12T11:37:36.994Z,6.77
2019-02-12T11:38:37.002Z,6.87
2019-02-12T11:39:36.968Z,6.97
2019-02-12T11:40:36.951Z,6.41
2019-02-12T11:41:36.951Z,6.17
2019-02-12T11:42:36.926Z,5.86
2019-02-12T11:43:36.950Z,5.78
2019-02-12T11:44:36.905Z,5.63
2019-02-12T11:45:36.903Z,5.91
2019-02-12T11:46:36.885Z,7.39
2019-02-12T11:47:36.879Z,8.50
2019-02-12T11:48:36.895Z,9.02
2019-02-12T11:49:36.874Z,8.92
2019-02-12T11:50:36.848Z,7.77
2019-02-12T11:51:36.833Z,7.09
2019-02-12T11:52:36.816Z,6.58
2019-02-12T11:53:36.827Z,6.31
2019-02-12T11:54:43.575Z,6.12
2019-02-12T11:55:37.787Z,6.81
2019-02-12T11:56:36.786Z,8.02
2019-02-12T11:57:36.767Z,8.91
2019-02-12T11:58:36.770Z,9.48
2019-02-12T11:59:36.784Z,10.17
2019-02-12T12:00:36.752Z,10.67
2019-02-12T12:01:36.722Z,10.41
2019-02-12T12:02:41.839Z,10.66
2019-02-12T12:03:37.701Z,10.45
2019-02-12T12:04:40.104Z,10.42
2019-02-12T12:05:36.738Z,10.42
2019-02-12T12:06:36.697Z,10.40
2019-02-12T12:07:36.665Z,10.40
2019-02-12T12:08:36.645Z,10.84
2019-02-12T12:09:36.664Z,11.18
2019-02-12T12:10:36.635Z,10.97
2019-02-12T12:11:36.624Z,11.27
2019-02-12T12:12:36.604Z,10.11
2019-02-12T12:13:36.592Z,9.05
2019-02-12T12:14:36.606Z,9.74
2019-02-12T12:15:36.578Z,9.74
2019-02-12T12:16:36.560Z,8.83
2019-02-12T12:17:36.556Z,8.07
2019-02-12T12:18:36.537Z,7.43
2019-02-12T12:19:36.546Z,6.87
2019-02-12T12:20:36.522Z,6.61
2019-02-12T12:21:36.533Z,6.51
2019-02-12T12:22:36.505Z,7.03
2019-02-12T12:23:36.494Z,6.89
2019-02-12T12:24:36.518Z,7.02
2019-02-12T12:25:36.467Z,7.92
2019-02-12T12:26:36.450Z,9.61
2019-02-12T12:27:36.490Z,10.89
2019-02-12T12:28:36.436Z,11.46
2019-02-12T12:29:36.417Z,12.21
2019-02-12T12:30:36.437Z,12.39
2019-02-12T12:31:36.402Z,11.21
2019-02-12T12:32:36.397Z,9.96
2019-02-12T12:33:36.380Z,9.08
2019-02-12T12:34:36.368Z,8.30
2019-02-12T12:35:36.391Z,7.86
2019-02-12T12:36:36.366Z,7.52
2019-02-12T12:37:36.333Z,7.27
2019-02-12T12:38:36.319Z,6.94
2019-02-12T12:39:36.311Z,6.80
2019-02-12T12:40:36.326Z,6.80
2019-02-12T12:41:36.291Z,6.66
2019-02-12T12:42:36.278Z,6.48
2019-02-12T12:43:36.266Z,6.33
2019-02-12T12:44:36.274Z,6.33
2019-02-12T12:45:36.263Z,6.25
2019-02-12T12:46:36.245Z,6.25
2019-02-12T12:47:36.252Z,6.11
2019-02-12T12:48:36.208Z,6.14
2019-02-12T12:49:36.202Z,6.22
2019-02-12T12:50:36.212Z,6.58
2019-02-12T12:51:36.192Z,6.48
2019-02-12T12:52:36.171Z,6.28
2019-02-12T12:53:36.156Z,6.14
2019-02-12T12:54:36.143Z,6.00
2019-02-12T12:55:36.159Z,6.03
2019-02-12T12:56:36.128Z,6.15
2019-02-12T12:57:41.557Z,6.46
2019-02-12T12:58:37.103Z,6.64
2019-02-12T12:59:36.107Z,7.80
2019-02-12T13:00:36.169Z,7.69
2019-02-12T13:01:36.176Z,7.98
2019-02-12T13:02:36.070Z,8.20
2019-02-12T13:03:36.069Z,9.13
2019-02-12T13:04:36.043Z,9.83
2019-02-12T13:05:36.058Z,10.07
2019-02-12T13:06:36.023Z,10.45
2019-02-12T13:07:36.013Z,10.40
2019-02-12T13:08:36.008Z,10.38
2019-02-12T13:09:35.984Z,10.29
2019-02-12T13:10:36.032Z,10.15
2019-02-12T13:11:35.960Z,10.76
2019-02-12T13:12:35.978Z,11.24
2019-02-12T13:13:35.945Z,11.09
2019-02-12T13:14:35.944Z,11.17
2019-02-12T13:15:35.950Z,10.94
2019-02-12T13:16:35.949Z,10.66
2019-02-12T13:17:35.901Z,10.34
2019-02-12T13:18:35.889Z,10.33
2019-02-12T13:19:35.881Z,10.56
2019-02-12T13:20:35.868Z,10.68
2019-02-12T13:21:35.870Z,10.30